KMOD/MOD METAR and TAF weather

Enter ICAO airport designator
Station Type Date Time Source
KMOD METAR 2020/12/01 20:53 UTC NOAA

KMOD 012053Z VRB03KT 10SM CLR 15/02 A3016 RMK AO2 SLP214 T01500017 58027


Station Type Date Time Source
KMOD Decoded METAR 2020/12/01 20:53 UTC NOAA

MODESTO CITY CO SHAM FLD, CA, United States (KMOD) 37-37N 120-57W 29M
Dec 01, 2020 - 03:53 PM EST / 2020.12.01 2053 UTC
Wind: Variable at 3 MPH (3 KT):0
Visibility: 10 mile(s):0
Sky conditions: clear
Temperature: 59.0 F (15.0 C)
Dew Point: 35.1 F (1.7 C)
Relative Humidity: 40%
Pressure (altimeter): 30.16 in. Hg (1021 hPa)
Pressure tendency: 0.08 inches (2.7 hPa) lower than three hours ago
ob: KMOD 012053Z VRB03KT 10SM CLR 15/02 A3016 RMK AO2 SLP214 T01500017 58027
cycle: 21

Station Type Date Time Source
KMOD TAF 2020/12/01 18:54 UTC NOAA

KMOD 011738Z 0118/0218 VRB04KT P6SM SKC
FM021000 VRB03KT 6SM BR SKC

Example: see airport list